sensor_id;sensor_type;location;lat;lon;timestamp;P1;durP1;ratioP1;P2;durP2;ratioP2
22455;SDS011;11395;53.204;6.502;2022-07-23T00:05:33;2.67;;;2.43;;
22455;SDS011;11395;53.204;6.502;2022-07-23T00:08:00;3.00;;;2.50;;
22455;SDS011;11395;53.204;6.502;2022-07-23T00:10:26;2.70;;;2.30;;
22455;SDS011;11395;53.204;6.502;2022-07-23T00:12:52;2.57;;;2.20;;
22455;SDS011;11395;53.204;6.502;2022-07-23T00:15:18;3.17;;;2.50;;
22455;SDS011;11395;53.204;6.502;2022-07-23T00:17:45;2.90;;;2.57;;
22455;SDS011;11395;53.204;6.502;2022-07-23T00:20:11;2.60;;;2.40;;
22455;SDS011;11395;53.204;6.502;2022-07-23T00:22:45;2.50;;;2.30;;
22455;SDS011;11395;53.204;6.502;2022-07-23T00:25:15;2.63;;;2.43;;
22455;SDS011;11395;53.204;6.502;2022-07-23T00:27:42;2.60;;;2.40;;
22455;SDS011;11395;53.204;6.502;2022-07-23T00:30:08;3.17;;;2.30;;
22455;SDS011;11395;53.204;6.502;2022-07-23T00:32:48;3.13;;;2.47;;
22455;SDS011;11395;53.204;6.502;2022-07-23T00:35:20;3.47;;;2.50;;
22455;SDS011;11395;53.204;6.502;2022-07-23T00:37:47;3.33;;;2.50;;
22455;SDS011;11395;53.204;6.502;2022-07-23T00:40:13;3.73;;;2.57;;
22455;SDS011;11395;53.204;6.502;2022-07-23T00:42:40;2.93;;;2.50;;
22455;SDS011;11395;53.204;6.502;2022-07-23T00:45:06;2.83;;;2.10;;
22455;SDS011;11395;53.204;6.502;2022-07-23T00:47:33;2.43;;;2.20;;
22455;SDS011;11395;53.204;6.502;2022-07-23T00:50:00;2.80;;;2.60;;
22455;SDS011;11395;53.204;6.502;2022-07-23T00:52:26;2.63;;;2.40;;
22455;SDS011;11395;53.204;6.502;2022-07-23T00:54:54;2.90;;;2.00;;
22455;SDS011;11395;53.204;6.502;2022-07-23T00:57:20;3.37;;;2.30;;
22455;SDS011;11395;53.204;6.502;2022-07-23T00:59:47;2.80;;;2.40;;
22455;SDS011;11395;53.204;6.502;2022-07-23T01:05:33;2.60;;;2.20;;
22455;SDS011;11395;53.204;6.502;2022-07-23T01:08:00;3.47;;;2.47;;
22455;SDS011;11395;53.204;6.502;2022-07-23T01:10:26;3.83;;;2.47;;
22455;SDS011;11395;53.204;6.502;2022-07-23T01:15:32;2.83;;;2.30;;
22455;SDS011;11395;53.204;6.502;2022-07-23T01:18:00;2.80;;;2.20;;
22455;SDS011;11395;53.204;6.502;2022-07-23T01:20:29;2.83;;;2.10;;
22455;SDS011;11395;53.204;6.502;2022-07-23T01:22:56;2.50;;;2.13;;
22455;SDS011;11395;53.204;6.502;2022-07-23T01:25:23;2.73;;;2.10;;
22455;SDS011;11395;53.204;6.502;2022-07-23T01:27:58;3.10;;;2.37;;
22455;SDS011;11395;53.204;6.502;2022-07-23T01:30:25;3.37;;;2.47;;
22455;SDS011;11395;53.204;6.502;2022-07-23T01:32:51;2.50;;;2.30;;
22455;SDS011;11395;53.204;6.502;2022-07-23T01:35:18;2.67;;;2.10;;
22455;SDS011;11395;53.204;6.502;2022-07-23T01:37:44;2.53;;;2.13;;
22455;SDS011;11395;53.204;6.502;2022-07-23T01:40:11;2.10;;;2.00;;
22455;SDS011;11395;53.204;6.502;2022-07-23T01:42:38;2.13;;;1.97;;
22455;SDS011;11395;53.204;6.502;2022-07-23T01:45:05;2.43;;;2.23;;
22455;SDS011;11395;53.204;6.502;2022-07-23T01:47:33;2.37;;;2.10;;
22455;SDS011;11395;53.204;6.502;2022-07-23T01:49:59;2.40;;;2.20;;
22455;SDS011;11395;53.204;6.502;2022-07-23T01:52:41;2.77;;;1.77;;
22455;SDS011;11395;53.204;6.502;2022-07-23T01:55:07;2.40;;;2.20;;
22455;SDS011;11395;53.204;6.502;2022-07-23T01:57:35;2.30;;;2.10;;
22455;SDS011;11395;53.204;6.502;2022-07-23T02:00:01;2.50;;;1.97;;
22455;SDS011;11395;53.204;6.502;2022-07-23T02:02:38;2.77;;;2.17;;
22455;SDS011;11395;53.204;6.502;2022-07-23T02:05:05;3.43;;;2.20;;
22455;SDS011;11395;53.204;6.502;2022-07-23T02:07:31;2.23;;;1.83;;
22455;SDS011;11395;53.204;6.502;2022-07-23T02:09:58;2.77;;;2.10;;
22455;SDS011;11395;53.204;6.502;2022-07-23T02:12:25;1.80;;;1.70;;
22455;SDS011;11395;53.204;6.502;2022-07-23T02:14:51;2.20;;;2.00;;
22455;SDS011;11395;53.204;6.502;2022-07-23T02:17:17;2.90;;;2.00;;
22455;SDS011;11395;53.204;6.502;2022-07-23T02:19:43;3.43;;;2.37;;
22455;SDS011;11395;53.204;6.502;2022-07-23T02:22:09;2.87;;;2.10;;
22455;SDS011;11395;53.204;6.502;2022-07-23T02:24:36;2.97;;;2.17;;
22455;SDS011;11395;53.204;6.502;2022-07-23T02:27:02;2.00;;;1.90;;
22455;SDS011;11395;53.204;6.502;2022-07-23T02:29:28;2.30;;;2.10;;
22455;SDS011;11395;53.204;6.502;2022-07-23T02:31:54;2.47;;;2.10;;
22455;SDS011;11395;53.204;6.502;2022-07-23T02:34:22;2.13;;;1.93;;
22455;SDS011;11395;53.204;6.502;2022-07-23T02:36:48;2.07;;;1.87;;
22455;SDS011;11395;53.204;6.502;2022-07-23T02:39:14;2.30;;;1.73;;
22455;SDS011;11395;53.204;6.502;2022-07-23T02:41:40;3.57;;;2.07;;
22455;SDS011;11395;53.204;6.502;2022-07-23T02:44:07;2.90;;;2.00;;
22455;SDS011;11395;53.204;6.502;2022-07-23T02:46:34;2.10;;;1.90;;
22455;SDS011;11395;53.204;6.502;2022-07-23T02:49:01;2.20;;;2.10;;
22455;SDS011;11395;53.204;6.502;2022-07-23T02:51:29;1.83;;;1.63;;
22455;SDS011;11395;53.204;6.502;2022-07-23T02:54:00;2.47;;;2.27;;
22455;SDS011;11395;53.204;6.502;2022-07-23T02:56:27;1.80;;;1.70;;
22455;SDS011;11395;53.204;6.502;2022-07-23T02:58:53;1.90;;;1.80;;
22455;SDS011;11395;53.204;6.502;2022-07-23T03:01:20;2.13;;;2.00;;
22455;SDS011;11395;53.204;6.502;2022-07-23T03:03:47;2.77;;;1.90;;
22455;SDS011;11395;53.204;6.502;2022-07-23T03:06:13;2.00;;;1.90;;
22455;SDS011;11395;53.204;6.502;2022-07-23T03:08:39;2.13;;;1.97;;
22455;SDS011;11395;53.204;6.502;2022-07-23T03:11:06;2.60;;;1.73;;
22455;SDS011;11395;53.204;6.502;2022-07-23T03:13:37;2.07;;;1.87;;
22455;SDS011;11395;53.204;6.502;2022-07-23T03:16:04;2.10;;;2.00;;
22455;SDS011;11395;53.204;6.502;2022-07-23T03:18:31;1.90;;;1.80;;
22455;SDS011;11395;53.204;6.502;2022-07-23T03:20:58;2.17;;;2.00;;
22455;SDS011;11395;53.204;6.502;2022-07-23T03:23:24;1.90;;;1.80;;
22455;SDS011;11395;53.204;6.502;2022-07-23T03:25:50;2.30;;;2.10;;
22455;SDS011;11395;53.204;6.502;2022-07-23T03:28:17;2.00;;;1.90;;
22455;SDS011;11395;53.204;6.502;2022-07-23T03:30:45;1.73;;;1.63;;
22455;SDS011;11395;53.204;6.502;2022-07-23T03:33:16;2.30;;;2.10;;
22455;SDS011;11395;53.204;6.502;2022-07-23T03:35:43;1.60;;;1.40;;
22455;SDS011;11395;53.204;6.502;2022-07-23T03:38:30;1.90;;;1.80;;
22455;SDS011;11395;53.204;6.502;2022-07-23T03:40:56;1.93;;;1.63;;
22455;SDS011;11395;53.204;6.502;2022-07-23T03:43:22;1.70;;;1.60;;
22455;SDS011;11395;53.204;6.502;2022-07-23T03:45:51;1.97;;;1.77;;
22455;SDS011;11395;53.204;6.502;2022-07-23T03:48:18;2.43;;;2.23;;
22455;SDS011;11395;53.204;6.502;2022-07-23T03:50:44;1.87;;;1.70;;
22455;SDS011;11395;53.204;6.502;2022-07-23T03:53:11;1.90;;;1.80;;
22455;SDS011;11395;53.204;6.502;2022-07-23T03:55:37;2.17;;;1.97;;
22455;SDS011;11395;53.204;6.502;2022-07-23T03:58:03;2.17;;;2.00;;
22455;SDS011;11395;53.204;6.502;2022-07-23T04:00:30;1.77;;;1.67;;
22455;SDS011;11395;53.204;6.502;2022-07-23T04:02:56;1.80;;;1.70;;
22455;SDS011;11395;53.204;6.502;2022-07-23T04:05:22;4.13;;;2.13;;
22455;SDS011;11395;53.204;6.502;2022-07-23T04:07:52;2.00;;;1.70;;
22455;SDS011;11395;53.204;6.502;2022-07-23T04:10:20;2.83;;;2.03;;
22455;SDS011;11395;53.204;6.502;2022-07-23T04:12:46;1.90;;;1.80;;
22455;SDS011;11395;53.204;6.502;2022-07-23T04:15:13;2.40;;;1.60;;
22455;SDS011;11395;53.204;6.502;2022-07-23T04:17:39;1.90;;;1.70;;
22455;SDS011;11395;53.204;6.502;2022-07-23T04:20:06;2.73;;;2.00;;
22455;SDS011;11395;53.204;6.502;2022-07-23T04:22:38;1.70;;;1.60;;
22455;SDS011;11395;53.204;6.502;2022-07-23T04:25:05;2.20;;;2.00;;
22455;SDS011;11395;53.204;6.502;2022-07-23T04:27:31;1.70;;;1.60;;
22455;SDS011;11395;53.204;6.502;2022-07-23T04:29:59;1.80;;;1.70;;
22455;SDS011;11395;53.204;6.502;2022-07-23T04:32:25;2.37;;;2.17;;
22455;SDS011;11395;53.204;6.502;2022-07-23T04:34:51;1.83;;;1.73;;
22455;SDS011;11395;53.204;6.502;2022-07-23T04:37:18;1.47;;;1.37;;
22455;SDS011;11395;53.204;6.502;2022-07-23T04:39:44;2.17;;;2.00;;
22455;SDS011;11395;53.204;6.502;2022-07-23T04:42:11;1.63;;;1.53;;
22455;SDS011;11395;53.204;6.502;2022-07-23T04:44:37;2.13;;;1.93;;
22455;SDS011;11395;53.204;6.502;2022-07-23T04:47:05;1.20;;;1.20;;
22455;SDS011;11395;53.204;6.502;2022-07-23T04:49:32;2.03;;;1.53;;
22455;SDS011;11395;53.204;6.502;2022-07-23T04:51:58;1.60;;;1.50;;
22455;SDS011;11395;53.204;6.502;2022-07-23T04:54:24;1.80;;;1.70;;
22455;SDS011;11395;53.204;6.502;2022-07-23T04:56:51;1.77;;;1.67;;
22455;SDS011;11395;53.204;6.502;2022-07-23T04:59:17;1.80;;;1.70;;
22455;SDS011;11395;53.204;6.502;2022-07-23T05:01:44;1.50;;;1.40;;
22455;SDS011;11395;53.204;6.502;2022-07-23T05:04:11;1.60;;;1.50;;
22455;SDS011;11395;53.204;6.502;2022-07-23T05:06:37;1.53;;;1.43;;
22455;SDS011;11395;53.204;6.502;2022-07-23T05:09:04;1.63;;;1.53;;
22455;SDS011;11395;53.204;6.502;2022-07-23T05:11:30;1.60;;;1.50;;
22455;SDS011;11395;53.204;6.502;2022-07-23T05:13:56;1.70;;;1.60;;
22455;SDS011;11395;53.204;6.502;2022-07-23T05:16:23;1.40;;;1.30;;
22455;SDS011;11395;53.204;6.502;2022-07-23T05:18:53;2.10;;;1.60;;
22455;SDS011;11395;53.204;6.502;2022-07-23T05:21:19;1.60;;;1.30;;
22455;SDS011;11395;53.204;6.502;2022-07-23T05:23:46;1.30;;;1.30;;
22455;SDS011;11395;53.204;6.502;2022-07-23T05:26:12;1.20;;;1.20;;
22455;SDS011;11395;53.204;6.502;2022-07-23T05:28:38;1.67;;;1.50;;
22455;SDS011;11395;53.204;6.502;2022-07-23T05:31:05;1.70;;;1.60;;
22455;SDS011;11395;53.204;6.502;2022-07-23T05:33:32;1.63;;;1.53;;
22455;SDS011;11395;53.204;6.502;2022-07-23T05:36:02;1.63;;;1.53;;
22455;SDS011;11395;53.204;6.502;2022-07-23T05:38:31;1.43;;;1.33;;
22455;SDS011;11395;53.204;6.502;2022-07-23T05:40:59;1.50;;;1.37;;
22455;SDS011;11395;53.204;6.502;2022-07-23T05:43:26;1.60;;;1.50;;
22455;SDS011;11395;53.204;6.502;2022-07-23T05:45:53;1.43;;;1.33;;
22455;SDS011;11395;53.204;6.502;2022-07-23T05:48:20;1.17;;;1.17;;
22455;SDS011;11395;53.204;6.502;2022-07-23T05:50:58;1.40;;;1.30;;
22455;SDS011;11395;53.204;6.502;2022-07-23T05:53:30;1.57;;;1.47;;
22455;SDS011;11395;53.204;6.502;2022-07-23T05:56:06;1.40;;;1.30;;
22455;SDS011;11395;53.204;6.502;2022-07-23T05:58:32;1.30;;;1.30;;
22455;SDS011;11395;53.204;6.502;2022-07-23T06:00:58;1.40;;;1.30;;
22455;SDS011;11395;53.204;6.502;2022-07-23T06:03:27;1.83;;;1.40;;
22455;SDS011;11395;53.204;6.502;2022-07-23T06:05:54;1.77;;;1.37;;
22455;SDS011;11395;53.204;6.502;2022-07-23T06:08:21;1.40;;;1.30;;
22455;SDS011;11395;53.204;6.502;2022-07-23T06:10:47;1.43;;;1.20;;
22455;SDS011;11395;53.204;6.502;2022-07-23T06:13:13;1.20;;;1.10;;
22455;SDS011;11395;53.204;6.502;2022-07-23T06:15:40;1.27;;;1.17;;
22455;SDS011;11395;53.204;6.502;2022-07-23T06:18:06;1.47;;;1.30;;
22455;SDS011;11395;53.204;6.502;2022-07-23T06:20:33;1.53;;;1.43;;
22455;SDS011;11395;53.204;6.502;2022-07-23T06:22:59;1.43;;;1.10;;
22455;SDS011;11395;53.204;6.502;2022-07-23T06:25:25;1.37;;;1.27;;
22455;SDS011;11395;53.204;6.502;2022-07-23T06:27:51;1.60;;;1.50;;
22455;SDS011;11395;53.204;6.502;2022-07-23T06:30:17;1.87;;;1.30;;
22455;SDS011;11395;53.204;6.502;2022-07-23T06:32:45;1.20;;;1.20;;
22455;SDS011;11395;53.204;6.502;2022-07-23T06:35:13;1.40;;;1.30;;
22455;SDS011;11395;53.204;6.502;2022-07-23T06:37:39;1.37;;;1.27;;
22455;SDS011;11395;53.204;6.502;2022-07-23T06:40:06;2.70;;;1.30;;
22455;SDS011;11395;53.204;6.502;2022-07-23T06:42:35;1.20;;;1.20;;
22455;SDS011;11395;53.204;6.502;2022-07-23T06:45:05;1.67;;;1.20;;
22455;SDS011;11395;53.204;6.502;2022-07-23T06:47:35;1.67;;;1.30;;
22455;SDS011;11395;53.204;6.502;2022-07-23T06:50:02;1.50;;;1.40;;
22455;SDS011;11395;53.204;6.502;2022-07-23T06:52:28;2.50;;;1.30;;
22455;SDS011;11395;53.204;6.502;2022-07-23T06:54:54;1.40;;;1.30;;
22455;SDS011;11395;53.204;6.502;2022-07-23T06:57:20;1.30;;;1.20;;
22455;SDS011;11395;53.204;6.502;2022-07-23T06:59:48;1.60;;;1.50;;
22455;SDS011;11395;53.204;6.502;2022-07-23T07:02:14;2.50;;;1.30;;
22455;SDS011;11395;53.204;6.502;2022-07-23T07:04:40;1.73;;;1.23;;
22455;SDS011;11395;53.204;6.502;2022-07-23T07:07:07;1.33;;;1.27;;
22455;SDS011;11395;53.204;6.502;2022-07-23T07:09:33;1.30;;;1.07;;
22455;SDS011;11395;53.204;6.502;2022-07-23T07:11:59;1.43;;;1.10;;
22455;SDS011;11395;53.204;6.502;2022-07-23T07:14:25;1.50;;;1.10;;
22455;SDS011;11395;53.204;6.502;2022-07-23T07:16:51;1.00;;;1.00;;
22455;SDS011;11395;53.204;6.502;2022-07-23T07:19:18;1.50;;;1.10;;
22455;SDS011;11395;53.204;6.502;2022-07-23T07:21:44;1.23;;;0.90;;
22455;SDS011;11395;53.204;6.502;2022-07-23T07:24:10;1.47;;;1.20;;
22455;SDS011;11395;53.204;6.502;2022-07-23T07:26:36;1.27;;;1.17;;
22455;SDS011;11395;53.204;6.502;2022-07-23T07:29:04;1.40;;;1.30;;
22455;SDS011;11395;53.204;6.502;2022-07-23T07:31:31;1.07;;;1.00;;
22455;SDS011;11395;53.204;6.502;2022-07-23T07:33:57;1.30;;;1.20;;
22455;SDS011;11395;53.204;6.502;2022-07-23T07:36:24;1.10;;;1.03;;
22455;SDS011;11395;53.204;6.502;2022-07-23T07:38:50;1.47;;;1.00;;
22455;SDS011;11395;53.204;6.502;2022-07-23T07:41:16;1.00;;;1.00;;
22455;SDS011;11395;53.204;6.502;2022-07-23T07:43:48;2.20;;;1.37;;
22455;SDS011;11395;53.204;6.502;2022-07-23T07:46:14;1.43;;;1.30;;
22455;SDS011;11395;53.204;6.502;2022-07-23T07:48:41;1.20;;;1.20;;
22455;SDS011;11395;53.204;6.502;2022-07-23T07:51:07;1.50;;;1.10;;
22455;SDS011;11395;53.204;6.502;2022-07-23T07:53:33;0.97;;;0.97;;
22455;SDS011;11395;53.204;6.502;2022-07-23T07:55:59;0.90;;;0.90;;
22455;SDS011;11395;53.204;6.502;2022-07-23T07:58:26;1.27;;;1.17;;
22455;SDS011;11395;53.204;6.502;2022-07-23T08:00:52;1.43;;;1.30;;
22455;SDS011;11395;53.204;6.502;2022-07-23T08:03:18;1.50;;;0.90;;
22455;SDS011;11395;53.204;6.502;2022-07-23T08:05:44;1.10;;;1.10;;
22455;SDS011;11395;53.204;6.502;2022-07-23T08:08:10;0.90;;;0.90;;
22455;SDS011;11395;53.204;6.502;2022-07-23T08:10:40;1.30;;;1.20;;
22455;SDS011;11395;53.204;6.502;2022-07-23T08:13:07;1.00;;;1.00;;
22455;SDS011;11395;53.204;6.502;2022-07-23T08:15:33;1.47;;;1.00;;
22455;SDS011;11395;53.204;6.502;2022-07-23T08:18:00;0.93;;;0.93;;
22455;SDS011;11395;53.204;6.502;2022-07-23T08:20:26;1.37;;;0.90;;
22455;SDS011;11395;53.204;6.502;2022-07-23T08:25:24;1.00;;;1.00;;
22455;SDS011;11395;53.204;6.502;2022-07-23T08:28:02;1.17;;;1.07;;
22455;SDS011;11395;53.204;6.502;2022-07-23T08:30:29;1.37;;;1.07;;
22455;SDS011;11395;53.204;6.502;2022-07-23T08:32:58;1.67;;;1.10;;
22455;SDS011;11395;53.204;6.502;2022-07-23T08:35:32;1.33;;;1.13;;
22455;SDS011;11395;53.204;6.502;2022-07-23T08:38:00;0.90;;;0.90;;
22455;SDS011;11395;53.204;6.502;2022-07-23T08:40:30;0.90;;;0.90;;
22455;SDS011;11395;53.204;6.502;2022-07-23T08:42:57;1.03;;;1.03;;
22455;SDS011;11395;53.204;6.502;2022-07-23T08:45:25;1.23;;;1.00;;
22455;SDS011;11395;53.204;6.502;2022-07-23T08:47:53;1.20;;;1.10;;
22455;SDS011;11395;53.204;6.502;2022-07-23T08:50:21;0.70;;;0.70;;
22455;SDS011;11395;53.204;6.502;2022-07-23T08:52:49;1.03;;;1.03;;
22455;SDS011;11395;53.204;6.502;2022-07-23T08:55:17;0.80;;;0.80;;
22455;SDS011;11395;53.204;6.502;2022-07-23T08:57:46;1.23;;;1.20;;
22455;SDS011;11395;53.204;6.502;2022-07-23T09:00:14;1.10;;;1.00;;
22455;SDS011;11395;53.204;6.502;2022-07-23T09:02:42;1.10;;;1.10;;
22455;SDS011;11395;53.204;6.502;2022-07-23T09:05:09;0.80;;;0.80;;
22455;SDS011;11395;53.204;6.502;2022-07-23T09:07:37;2.10;;;1.17;;
22455;SDS011;11395;53.204;6.502;2022-07-23T09:10:23;1.03;;;0.97;;
22455;SDS011;11395;53.204;6.502;2022-07-23T09:12:49;1.33;;;1.23;;
22455;SDS011;11395;53.204;6.502;2022-07-23T09:15:16;1.17;;;0.87;;
22455;SDS011;11395;53.204;6.502;2022-07-23T09:17:42;1.00;;;1.00;;
22455;SDS011;11395;53.204;6.502;2022-07-23T09:20:13;1.17;;;1.07;;
22455;SDS011;11395;53.204;6.502;2022-07-23T09:22:44;1.17;;;1.00;;
22455;SDS011;11395;53.204;6.502;2022-07-23T09:25:13;1.20;;;1.10;;
22455;SDS011;11395;53.204;6.502;2022-07-23T09:27:53;1.37;;;1.00;;
22455;SDS011;11395;53.204;6.502;2022-07-23T09:30:23;1.00;;;1.00;;
22455;SDS011;11395;53.204;6.502;2022-07-23T09:33:11;1.17;;;1.13;;
22455;SDS011;11395;53.204;6.502;2022-07-23T09:35:44;1.07;;;1.07;;
22455;SDS011;11395;53.204;6.502;2022-07-23T09:38:22;1.10;;;1.10;;
22455;SDS011;11395;53.204;6.502;2022-07-23T09:43:35;1.00;;;1.00;;
22455;SDS011;11395;53.204;6.502;2022-07-23T09:46:21;1.27;;;1.17;;
22455;SDS011;11395;53.204;6.502;2022-07-23T09:48:53;1.90;;;0.80;;
22455;SDS011;11395;53.204;6.502;2022-07-23T09:51:22;1.90;;;0.90;;
22455;SDS011;11395;53.204;6.502;2022-07-23T09:54:04;1.20;;;1.10;;
22455;SDS011;11395;53.204;6.502;2022-07-23T09:56:30;1.10;;;1.10;;
22455;SDS011;11395;53.204;6.502;2022-07-23T09:58:58;0.97;;;0.97;;
22455;SDS011;11395;53.204;6.502;2022-07-23T10:01:38;1.00;;;1.00;;
22455;SDS011;11395;53.204;6.502;2022-07-23T10:04:04;1.00;;;1.00;;
22455;SDS011;11395;53.204;6.502;2022-07-23T10:06:55;1.00;;;1.00;;
22455;SDS011;11395;53.204;6.502;2022-07-23T10:09:42;1.57;;;1.10;;
22455;SDS011;11395;53.204;6.502;2022-07-23T10:12:36;1.13;;;1.13;;
22455;SDS011;11395;53.204;6.502;2022-07-23T10:15:06;1.20;;;1.20;;
22455;SDS011;11395;53.204;6.502;2022-07-23T10:17:34;1.20;;;1.10;;
22455;SDS011;11395;53.204;6.502;2022-07-23T10:20:01;1.10;;;1.10;;
22455;SDS011;11395;53.204;6.502;2022-07-23T10:22:30;1.00;;;1.00;;
22455;SDS011;11395;53.204;6.502;2022-07-23T10:27:49;0.80;;;0.80;;
22455;SDS011;11395;53.204;6.502;2022-07-23T10:34:12;1.00;;;1.00;;
22455;SDS011;11395;53.204;6.502;2022-07-23T10:36:49;0.83;;;0.83;;
22455;SDS011;11395;53.204;6.502;2022-07-23T10:41:50;2.77;;;1.10;;
22455;SDS011;11395;53.204;6.502;2022-07-23T10:44:17;1.67;;;1.10;;
22455;SDS011;11395;53.204;6.502;2022-07-23T10:47:02;1.30;;;1.13;;
22455;SDS011;11395;53.204;6.502;2022-07-23T10:49:44;1.10;;;1.10;;
22455;SDS011;11395;53.204;6.502;2022-07-23T10:54:45;1.00;;;1.00;;
22455;SDS011;11395;53.204;6.502;2022-07-23T10:57:12;2.30;;;1.40;;
22455;SDS011;11395;53.204;6.502;2022-07-23T11:02:33;1.00;;;1.00;;
22455;SDS011;11395;53.204;6.502;2022-07-23T11:07:33;1.20;;;1.10;;
22455;SDS011;11395;53.204;6.502;2022-07-23T11:10:00;1.00;;;1.00;;
22455;SDS011;11395;53.204;6.502;2022-07-23T11:17:39;0.90;;;0.90;;
22455;SDS011;11395;53.204;6.502;2022-07-23T11:22:35;1.00;;;0.90;;
22455;SDS011;11395;53.204;6.502;2022-07-23T11:25:01;1.07;;;1.07;;
22455;SDS011;11395;53.204;6.502;2022-07-23T11:27:38;1.10;;;1.10;;
22455;SDS011;11395;53.204;6.502;2022-07-23T11:30:05;1.10;;;1.00;;
22455;SDS011;11395;53.204;6.502;2022-07-23T11:32:42;0.90;;;0.90;;
22455;SDS011;11395;53.204;6.502;2022-07-23T11:35:18;1.20;;;1.10;;
22455;SDS011;11395;53.204;6.502;2022-07-23T11:37:47;0.90;;;0.90;;
22455;SDS011;11395;53.204;6.502;2022-07-23T11:40:15;1.00;;;1.00;;
22455;SDS011;11395;53.204;6.502;2022-07-23T11:42:55;1.00;;;1.00;;
22455;SDS011;11395;53.204;6.502;2022-07-23T11:45:33;0.80;;;0.80;;
22455;SDS011;11395;53.204;6.502;2022-07-23T11:48:03;1.00;;;0.93;;
22455;SDS011;11395;53.204;6.502;2022-07-23T11:50:31;1.10;;;1.00;;
22455;SDS011;11395;53.204;6.502;2022-07-23T11:52:57;1.00;;;1.00;;
22455;SDS011;11395;53.204;6.502;2022-07-23T11:55:23;0.90;;;0.90;;
22455;SDS011;11395;53.204;6.502;2022-07-23T11:57:50;1.30;;;1.20;;
22455;SDS011;11395;53.204;6.502;2022-07-23T12:00:19;0.90;;;0.90;;
22455;SDS011;11395;53.204;6.502;2022-07-23T12:02:52;0.97;;;0.97;;
22455;SDS011;11395;53.204;6.502;2022-07-23T12:05:25;1.00;;;1.00;;
22455;SDS011;11395;53.204;6.502;2022-07-23T12:07:59;0.80;;;0.80;;
22455;SDS011;11395;53.204;6.502;2022-07-23T12:13:11;0.90;;;0.90;;
22455;SDS011;11395;53.204;6.502;2022-07-23T12:15:44;1.03;;;0.73;;
22455;SDS011;11395;53.204;6.502;2022-07-23T12:18:13;0.90;;;0.90;;
22455;SDS011;11395;53.204;6.502;2022-07-23T12:20:42;1.00;;;1.00;;
22455;SDS011;11395;53.204;6.502;2022-07-23T12:23:10;0.80;;;0.80;;
22455;SDS011;11395;53.204;6.502;2022-07-23T12:25:39;0.90;;;0.90;;
22455;SDS011;11395;53.204;6.502;2022-07-23T12:28:16;0.93;;;0.93;;
22455;SDS011;11395;53.204;6.502;2022-07-23T12:30:54;0.90;;;0.90;;
22455;SDS011;11395;53.204;6.502;2022-07-23T12:33:22;0.80;;;0.80;;
22455;SDS011;11395;53.204;6.502;2022-07-23T12:35:51;1.00;;;1.00;;
22455;SDS011;11395;53.204;6.502;2022-07-23T12:38:19;1.23;;;1.20;;
22455;SDS011;11395;53.204;6.502;2022-07-23T12:43:21;0.93;;;0.80;;
22455;SDS011;11395;53.204;6.502;2022-07-23T12:50:59;1.17;;;1.07;;
22455;SDS011;11395;53.204;6.502;2022-07-23T12:55:57;5.10;;;1.20;;
22455;SDS011;11395;53.204;6.502;2022-07-23T12:58:39;0.80;;;0.80;;
22455;SDS011;11395;53.204;6.502;2022-07-23T13:01:08;0.80;;;0.80;;
22455;SDS011;11395;53.204;6.502;2022-07-23T13:03:37;1.10;;;1.10;;
22455;SDS011;11395;53.204;6.502;2022-07-23T13:06:09;0.90;;;0.90;;
22455;SDS011;11395;53.204;6.502;2022-07-23T13:08:37;2.07;;;1.07;;
22455;SDS011;11395;53.204;6.502;2022-07-23T13:11:05;0.87;;;0.87;;
22455;SDS011;11395;53.204;6.502;2022-07-23T13:13:33;2.13;;;1.00;;
22455;SDS011;11395;53.204;6.502;2022-07-23T13:16:00;1.43;;;0.93;;
22455;SDS011;11395;53.204;6.502;2022-07-23T13:18:27;1.43;;;0.87;;
22455;SDS011;11395;53.204;6.502;2022-07-23T13:20:54;1.03;;;1.03;;
22455;SDS011;11395;53.204;6.502;2022-07-23T13:23:21;1.43;;;1.00;;
22455;SDS011;11395;53.204;6.502;2022-07-23T13:25:48;0.80;;;0.80;;
22455;SDS011;11395;53.204;6.502;2022-07-23T13:28:16;1.33;;;1.23;;
22455;SDS011;11395;53.204;6.502;2022-07-23T13:30:43;0.70;;;0.70;;
22455;SDS011;11395;53.204;6.502;2022-07-23T13:33:10;1.60;;;0.90;;
22455;SDS011;11395;53.204;6.502;2022-07-23T13:35:37;1.03;;;1.03;;
22455;SDS011;11395;53.204;6.502;2022-07-23T13:38:04;1.10;;;1.00;;
22455;SDS011;11395;53.204;6.502;2022-07-23T13:40:35;1.37;;;1.00;;
22455;SDS011;11395;53.204;6.502;2022-07-23T13:43:05;2.03;;;1.10;;
22455;SDS011;11395;53.204;6.502;2022-07-23T13:45:32;1.00;;;1.00;;
22455;SDS011;11395;53.204;6.502;2022-07-23T13:47:59;1.10;;;1.10;;
22455;SDS011;11395;53.204;6.502;2022-07-23T13:50:26;1.30;;;1.30;;
22455;SDS011;11395;53.204;6.502;2022-07-23T13:52:52;1.30;;;1.10;;
22455;SDS011;11395;53.204;6.502;2022-07-23T13:55:19;1.30;;;1.30;;
22455;SDS011;11395;53.204;6.502;2022-07-23T13:57:45;1.00;;;1.00;;
22455;SDS011;11395;53.204;6.502;2022-07-23T14:00:11;1.53;;;1.30;;
22455;SDS011;11395;53.204;6.502;2022-07-23T14:02:38;1.37;;;1.27;;
22455;SDS011;11395;53.204;6.502;2022-07-23T14:05:06;1.33;;;1.33;;
22455;SDS011;11395;53.204;6.502;2022-07-23T14:07:34;2.33;;;1.10;;
22455;SDS011;11395;53.204;6.502;2022-07-23T14:10:02;1.60;;;1.13;;
22455;SDS011;11395;53.204;6.502;2022-07-23T14:12:29;1.20;;;1.20;;
22455;SDS011;11395;53.204;6.502;2022-07-23T14:14:55;0.97;;;0.97;;
22455;SDS011;11395;53.204;6.502;2022-07-23T14:17:22;1.17;;;1.17;;
22455;SDS011;11395;53.204;6.502;2022-07-23T14:19:48;1.10;;;1.10;;
22455;SDS011;11395;53.204;6.502;2022-07-23T14:22:15;1.70;;;1.03;;
22455;SDS011;11395;53.204;6.502;2022-07-23T14:24:41;2.27;;;1.10;;
22455;SDS011;11395;53.204;6.502;2022-07-23T14:27:07;2.10;;;1.20;;
22455;SDS011;11395;53.204;6.502;2022-07-23T14:29:34;1.50;;;1.30;;
22455;SDS011;11395;53.204;6.502;2022-07-23T14:32:01;1.47;;;1.37;;
22455;SDS011;11395;53.204;6.502;2022-07-23T14:34:28;1.10;;;1.10;;
22455;SDS011;11395;53.204;6.502;2022-07-23T14:36:55;1.33;;;1.23;;
22455;SDS011;11395;53.204;6.502;2022-07-23T14:39:22;1.10;;;1.10;;
22455;SDS011;11395;53.204;6.502;2022-07-23T14:41:49;0.70;;;0.70;;
22455;SDS011;11395;53.204;6.502;2022-07-23T14:44:15;1.13;;;1.13;;
22455;SDS011;11395;53.204;6.502;2022-07-23T14:46:41;0.90;;;0.90;;
22455;SDS011;11395;53.204;6.502;2022-07-23T14:49:07;1.43;;;1.33;;
22455;SDS011;11395;53.204;6.502;2022-07-23T14:51:34;1.00;;;1.00;;
22455;SDS011;11395;53.204;6.502;2022-07-23T14:54:02;1.20;;;1.20;;
22455;SDS011;11395;53.204;6.502;2022-07-23T14:56:29;1.10;;;1.10;;
22455;SDS011;11395;53.204;6.502;2022-07-23T14:58:56;1.10;;;1.10;;
22455;SDS011;11395;53.204;6.502;2022-07-23T15:01:22;1.50;;;1.20;;
22455;SDS011;11395;53.204;6.502;2022-07-23T15:03:49;1.20;;;1.20;;
22455;SDS011;11395;53.204;6.502;2022-07-23T15:06:16;1.97;;;1.23;;
22455;SDS011;11395;53.204;6.502;2022-07-23T15:08:43;1.10;;;1.10;;
22455;SDS011;11395;53.204;6.502;2022-07-23T15:11:09;0.97;;;0.97;;
22455;SDS011;11395;53.204;6.502;2022-07-23T15:13:35;1.20;;;1.20;;
22455;SDS011;11395;53.204;6.502;2022-07-23T15:16:03;2.20;;;1.40;;
22455;SDS011;11395;53.204;6.502;2022-07-23T15:18:30;1.00;;;1.00;;
22455;SDS011;11395;53.204;6.502;2022-07-23T15:20:56;1.00;;;1.00;;
22455;SDS011;11395;53.204;6.502;2022-07-23T15:23:23;1.70;;;1.10;;
22455;SDS011;11395;53.204;6.502;2022-07-23T15:25:49;1.00;;;1.00;;
22455;SDS011;11395;53.204;6.502;2022-07-23T15:28:16;0.90;;;0.90;;
22455;SDS011;11395;53.204;6.502;2022-07-23T15:30:42;1.10;;;1.10;;
22455;SDS011;11395;53.204;6.502;2022-07-23T15:33:08;1.07;;;1.07;;
22455;SDS011;11395;53.204;6.502;2022-07-23T15:35:34;2.13;;;1.10;;
22455;SDS011;11395;53.204;6.502;2022-07-23T15:38:00;1.20;;;1.20;;
22455;SDS011;11395;53.204;6.502;2022-07-23T15:40:26;0.90;;;0.90;;
22455;SDS011;11395;53.204;6.502;2022-07-23T15:42:53;1.23;;;1.10;;
22455;SDS011;11395;53.204;6.502;2022-07-23T15:45:19;1.30;;;1.20;;
22455;SDS011;11395;53.204;6.502;2022-07-23T15:47:46;0.90;;;0.90;;